aviador You're here:

VOHY Decoded Metar

HYDERABAD in INDIA
Report Time2017-08-19 14:30:00
UTC Time2017-08-19 15:02:25
Flight Rules ifr IFR
Wind270° at 06 kt
W.Decomp.*RWY 27: 6.0 kt HW 0.1 kt RCW
W.Rank270° ranks 1
Current wind is below 270° avg. (6.8)
Visibility3000 m
Phenomena:Light Rain
Clouds:Broken 010 Hf
Scattered 015 Hf
Overcast 080 Hf
Ceiling1,000 ft
Temp23°C (ISA +12)
Dew Point23°C (100% RH)
QNH1005 hPa
Density Alt3,780 ft
Elevation1,788 ft
Report Wrong Elevation
Raw Report
VOHY 191430Z 27006KT 3000 -RA BKN010 SCT015 OVC080 23/23 Q1005
NOSIG=

Extra information for VOHY:More info

Metar Taf Metar & Taf Last 4 Metars F.Rules Stats Wind Profile Meteogram Temp Stats Airport Information Weather charts Add Link Nearby VenuesMetar ALERT Operation Metar Decoded Social comments